Time;durP1;ratioP1;P1;durP2;ratioP2;P2;SDS_P1;SDS_P2;PMS_P1;PMS_P2;Temp;Humidity;BMP_temperature;BMP_pressure;BME280_temperature;BME280_humidity;BME280_pressure;Samples;Min_cycle;Max_cycle;Signal;HPM_P1;HPM_P2
2022/02/14 00:00:40;;;;;;;40.40;25.40;;;;;;;2.92;80.01;95595.47;5052746;28;20445;-83
2022/02/14 00:03:08;;;;;;;48.80;27.90;;;;;;;2.99;79.73;95602.06;5052663;28;20450;-84
2022/02/14 00:05:36;;;;;;;38.90;22.37;;;;;;;3.03;79.27;95601.84;5052981;28;20451;-82
2022/02/14 00:08:03;;;;;;;26.53;20.30;;;;;;;3.05;79.31;95605.22;5053023;28;20452;-84
2022/02/14 00:10:30;;;;;;;30.67;20.90;;;;;;;3.11;79.08;95602.34;5034227;28;20818;-84
2022/02/14 00:12:58;;;;;;;28.47;18.50;;;;;;;3.17;78.62;95602.97;5034096;28;20975;-84
2022/02/14 00:15:25;;;;;;;21.83;16.07;;;;;;;3.18;77.93;95597.75;5053226;28;21032;-83
2022/02/14 00:17:52;;;;;;;31.70;16.10;;;;;;;3.23;76.68;95602.72;5052772;28;20446;-84
2022/02/14 00:20:19;;;;;;;17.70;12.67;;;;;;;3.20;76.33;95608.06;5052935;28;20453;-83
2022/02/14 00:22:47;;;;;;;19.30;13.53;;;;;;;3.11;76.95;95599.75;5052703;28;20435;-83
2022/02/14 00:25:17;;;;;;;23.90;14.50;;;;;;;2.98;76.69;95600.38;5052549;28;20452;-83
2022/02/14 00:27:44;;;;;;;49.40;23.27;;;;;;;2.78;77.57;95598.63;5017555;28;20454;-83
2022/02/14 00:30:11;;;;;;;44.03;25.63;;;;;;;2.76;77.97;95593.53;5052757;28;20799;-83
2022/02/14 00:32:38;;;;;;;42.27;21.90;;;;;;;2.76;79.06;95590.09;5052412;28;20449;-81
2022/02/14 00:35:06;;;;;;;43.53;21.63;;;;;;;2.85;79.23;95586.25;5017261;28;20481;-83
2022/02/14 00:37:33;;;;;;;36.63;20.40;;;;;;;2.85;79.08;95587.09;5052124;28;20476;-83
2022/02/14 00:40:02;;;;;;;42.80;22.53;;;;;;;2.84;79.06;95582.81;5052639;28;20456;-84
2022/02/14 00:42:28;;;;;;;31.03;18.50;;;;;;;2.83;79.34;95588.06;5052397;28;20446;-83
2022/02/14 00:44:55;;;;;;;45.40;26.50;;;;;;;2.86;79.74;95593.97;5052024;28;20545;-83
2022/02/14 00:47:22;;;;;;;39.73;22.10;;;;;;;2.88;79.55;95588.72;5052198;28;20442;-83
2022/02/14 00:49:49;;;;;;;34.23;21.87;;;;;;;2.89;79.10;95592.97;5052128;28;20450;-83
2022/02/14 00:52:16;;;;;;;38.30;19.70;;;;;;;2.65;78.36;95587.97;5052216;28;20464;-83
2022/02/14 00:54:43;;;;;;;29.35;17.98;;;;;;;2.33;79.61;95596.25;5052138;28;20478;-83
2022/02/14 00:57:11;;;;;;;37.40;20.17;;;;;;;2.44;79.75;95591.47;5052010;28;20253;-83
2022/02/14 00:59:38;;;;;;;29.87;19.40;;;;;;;2.51;79.62;95584.28;5052077;28;20438;-82
2022/02/14 01:02:05;;;;;;;34.60;21.20;;;;;;;2.51;79.77;95571.31;5052174;28;20443;-83
2022/02/14 01:04:32;;;;;;;30.57;18.57;;;;;;;2.58;80.63;95572.72;5052029;28;20438;-83
2022/02/14 01:06:59;;;;;;;33.87;21.73;;;;;;;2.61;79.92;95563.09;5052163;28;20446;-83
2022/02/14 01:09:26;;;;;;;31.43;19.00;;;;;;;2.71;80.36;95560.94;5051820;28;20445;-83
2022/02/14 01:11:53;;;;;;;31.43;19.63;;;;;;;2.80;80.67;95557.94;5016471;28;20442;-83
2022/02/14 01:14:21;;;;;;;29.73;20.10;;;;;;;2.75;79.99;95555.56;5053116;28;20879;-83
2022/02/14 01:16:48;;;;;;;30.97;19.00;;;;;;;2.72;80.76;95557.44;5056285;28;20457;-83
2022/02/14 01:19:15;;;;;;;38.67;20.10;;;;;;;2.62;80.87;95563.94;5056055;28;20452;-83
2022/02/14 01:21:42;;;;;;;24.90;15.20;;;;;;;2.57;81.01;95555.50;5056185;28;20453;-83
2022/02/14 01:24:09;;;;;;;32.60;18.58;;;;;;;2.51;81.12;95560.97;5055770;28;20508;-83
2022/02/14 01:26:36;;;;;;;26.35;17.65;;;;;;;2.49;81.37;95550.66;5055814;28;20199;-84
2022/02/14 01:29:03;;;;;;;27.60;17.70;;;;;;;2.60;81.43;95555.38;5020961;28;20557;-83
2022/02/14 01:31:32;;;;;;;26.57;17.23;;;;;;;2.62;81.83;95546.66;5055894;28;20591;-83
2022/02/14 01:33:59;;;;;;;40.90;24.40;;;;;;;2.64;81.61;95551.78;5055815;28;20810;-83
2022/02/14 01:36:26;;;;;;;27.90;19.27;;;;;;;2.73;81.54;95556.53;5055598;28;20480;-83
2022/02/14 01:38:53;;;;;;;29.53;19.23;;;;;;;2.82;81.47;95550.09;5056061;28;20553;-83
2022/02/14 01:41:20;;;;;;;29.77;19.97;;;;;;;2.89;80.38;95539.44;5020470;28;20448;-83
2022/02/14 01:43:48;;;;;;;38.90;19.03;;;;;;;2.99;80.66;95548.47;5055565;28;20959;-83
2022/02/14 01:46:15;;;;;;;27.00;19.53;;;;;;;2.84;80.51;95543.09;5055437;28;20952;-82
2022/02/14 01:48:43;;;;;;;39.40;23.17;;;;;;;2.78;81.76;95537.28;5055327;28;20442;-82
2022/02/14 01:51:10;;;;;;;33.33;22.00;;;;;;;2.76;81.53;95535.69;5055214;28;20505;-83
2022/02/14 01:53:37;;;;;;;36.10;21.37;;;;;;;2.75;81.60;95521.03;5054954;28;20536;-83
2022/02/14 01:56:05;;;;;;;32.97;20.23;;;;;;;2.89;81.78;95531.66;5055763;28;20980;-83
2022/02/14 01:58:32;;;;;;;30.67;20.10;;;;;;;2.98;81.38;95533.81;5055551;28;20791;-84
2022/02/14 02:00:59;;;;;;;34.63;18.97;;;;;;;3.04;81.86;95525.75;5055193;28;20445;-83
2022/02/14 02:03:26;;;;;;;22.70;14.73;;;;;;;3.10;81.21;95532.41;5055327;28;20430;-83
2022/02/14 02:05:56;;;;;;;19.50;14.30;;;;;;;3.19;81.34;95534.63;5055049;28;20451;-84
2022/02/14 02:08:24;;;;;;;25.43;14.27;;;;;;;3.23;80.61;95523.19;5055684;28;20459;-84
2022/02/14 02:12:22;;;;;;;18.80;14.23;;;;;;;3.25;80.67;95516.16;5054897;28;20431;-83
2022/02/14 02:13:38;;;;;;;24.07;14.87;;;;;;;3.21;80.14;95518.97;5025593;28;20958;-83
2022/02/14 02:16:05;;;;;;;22.80;14.77;;;;;;;3.28;80.67;95515.19;5054761;28;20480;-83
2022/02/14 02:18:32;;;;;;;36.90;15.30;;;;;;;3.30;80.88;95503.00;5054916;28;20451;-83
2022/02/14 02:21:00;;;;;;;23.63;16.23;;;;;;;3.40;80.56;95507.66;5055231;28;20709;-83
2022/02/14 02:23:27;;;;;;;27.33;15.10;;;;;;;3.46;80.68;95506.53;5054880;28;20442;-83
2022/02/14 02:25:56;;;;;;;18.07;14.60;;;;;;;3.55;79.50;95520.84;5053633;28;20800;-83
2022/02/14 02:28:23;;;;;;;24.37;15.67;;;;;;;3.56;79.30;95506.94;5055099;28;20467;-84
2022/02/14 02:30:50;;;;;;;23.00;15.90;;;;;;;3.56;79.06;95505.19;5055076;28;20444;-83
2022/02/14 02:33:17;;;;;;;28.27;16.90;;;;;;;3.53;78.99;95505.34;5054816;28;20443;-83
2022/02/14 02:35:44;;;;;;;29.30;15.13;;;;;;;3.50;79.04;95512.44;5054744;28;20473;-83
2022/02/14 02:38:10;;;;;;;25.20;17.23;;;;;;;3.49;79.41;95508.16;5054732;28;20458;-83
2022/02/14 02:40:37;;;;;;;25.20;15.27;;;;;;;3.44;79.51;95503.16;5054326;28;20468;-82
2022/02/14 02:43:06;;;;;;;28.10;16.33;;;;;;;3.45;79.16;95507.44;5054581;28;20450;-83
2022/02/14 02:45:33;;;;;;;26.17;17.03;;;;;;;3.37;80.51;95500.03;5019429;28;20478;-83
2022/02/14 02:48:00;;;;;;;20.63;15.60;;;;;;;3.44;80.67;95487.59;5054671;28;20447;-83
2022/02/14 02:50:26;;;;;;;23.10;15.80;;;;;;;3.48;80.58;95498.69;5054030;28;20443;-82
2022/02/14 02:52:53;;;;;;;22.40;14.33;;;;;;;3.52;80.56;95493.28;5054102;28;20453;-83
2022/02/14 02:55:20;;;;;;;19.40;13.80;;;;;;;3.56;80.37;95487.03;5019122;28;20486;-83
2022/02/14 02:57:47;;;;;;;19.50;14.23;;;;;;;3.63;80.01;95492.75;5018941;28;20455;-83
2022/02/14 03:00:17;;;;;;;21.70;15.10;;;;;;;3.67;79.53;95499.47;5054217;28;20450;-83
2022/02/14 03:02:44;;;;;;;25.40;17.80;;;;;;;3.71;79.60;95503.59;5053872;28;20451;-84
2022/02/14 03:05:11;;;;;;;28.00;17.50;;;;;;;3.72;79.43;95505.28;5054030;28;20451;-83
2022/02/14 03:07:37;;;;;;;29.10;15.87;;;;;;;3.69;79.29;95506.28;5053840;28;20446;-83
2022/02/14 03:10:05;;;;;;;20.97;15.43;;;;;;;3.70;78.85;95500.19;5053946;28;20446;-84
2022/02/14 03:12:33;;;;;;;23.47;17.83;;;;;;;3.58;79.12;95499.94;5053815;28;20439;-84
2022/02/14 03:14:59;;;;;;;38.10;21.80;;;;;;;3.36;79.68;95497.50;5053855;28;20488;-83
2022/02/14 03:17:28;;;;;;;34.20;20.70;;;;;;;3.38;80.30;95503.47;5053797;28;20452;-85
2022/02/14 03:19:55;;;;;;;25.90;17.60;;;;;;;3.39;80.07;95505.13;5053806;28;20452;-84
2022/02/14 03:22:22;;;;;;;32.20;17.90;;;;;;;3.39;81.18;95513.75;5053626;28;20439;-84
2022/02/14 03:24:48;;;;;;;25.10;15.90;;;;;;;3.41;81.01;95513.69;5053997;28;20438;-84
2022/02/14 03:27:15;;;;;;;25.77;15.50;;;;;;;3.42;81.56;95510.19;5018377;28;20439;-84
2022/02/14 03:29:42;;;;;;;24.50;15.63;;;;;;;3.48;81.87;95509.06;5053366;28;20454;-83
2022/02/14 03:32:09;;;;;;;23.20;16.57;;;;;;;3.52;81.15;95511.44;5053350;28;20438;-84
2022/02/14 03:34:37;;;;;;;23.70;15.57;;;;;;;3.54;80.05;95504.44;5053430;28;20430;-83
2022/02/14 03:37:04;;;;;;;23.20;16.47;;;;;;;3.58;80.79;95503.38;5053231;28;20451;-84
2022/02/14 03:39:31;;;;;;;23.33;16.27;;;;;;;3.63;80.62;95498.78;5053059;28;20527;-84
2022/02/14 03:41:58;;;;;;;36.70;18.47;;;;;;;3.63;79.95;95488.41;5053234;28;20451;-84
2022/02/14 03:44:25;;;;;;;31.00;19.20;;;;;;;3.68;79.94;95489.03;5053135;28;20456;-84
2022/02/14 03:46:52;;;;;;;33.00;20.13;;;;;;;3.71;79.69;95490.63;5053207;28;20459;-84
2022/02/14 03:49:19;;;;;;;27.57;18.33;;;;;;;3.66;79.41;95496.06;5053280;28;20480;-83
2022/02/14 03:51:48;;;;;;;29.87;16.83;;;;;;;3.67;79.28;95494.28;5052911;28;20855;-82
2022/02/14 03:54:15;;;;;;;31.50;18.43;;;;;;;3.64;79.67;95497.03;5052978;28;20440;-84
2022/02/14 03:56:42;;;;;;;22.07;17.33;;;;;;;3.56;78.58;95496.56;5017672;28;20485;-84
2022/02/14 03:59:09;;;;;;;28.57;18.00;;;;;;;3.52;79.42;95493.28;5017924;28;20438;-84
2022/02/14 04:01:36;;;;;;;39.10;22.10;;;;;;;3.46;79.31;95490.13;5017799;28;20440;-83
2022/02/14 04:04:03;;;;;;;36.97;21.57;;;;;;;3.44;79.66;95492.78;5052868;28;20443;-84
2022/02/14 04:06:30;;;;;;;39.87;22.53;;;;;;;3.40;79.51;95486.06;5018134;28;20804;-84
2022/02/14 04:08:59;;;;;;;33.33;20.23;;;;;;;3.34;79.59;95481.19;5052653;28;20450;-84
2022/02/14 04:11:26;;;;;;;33.73;22.30;;;;;;;3.32;79.59;95483.00;5052869;28;20460;-83
2022/02/14 04:13:52;;;;;;;28.57;19.03;;;;;;;3.33;80.91;95485.53;5052755;28;20456;-84
2022/02/14 04:16:21;;;;;;;33.20;19.57;;;;;;;3.38;80.33;95490.50;5051609;28;20497;-84
2022/02/14 04:18:47;;;;;;;30.43;20.30;;;;;;;3.40;80.61;95492.09;5052600;28;20925;-84
2022/02/14 04:21:14;;;;;;;33.60;20.23;;;;;;;3.43;80.14;95480.72;5052642;28;20440;-84
2022/02/14 04:23:41;;;;;;;40.80;21.67;;;;;;;3.47;80.05;95492.66;5052397;28;20451;-84
2022/02/14 04:26:10;;;;;;;35.00;22.80;;;;;;;3.49;80.39;95485.66;5017801;28;20441;-84
2022/02/14 04:28:36;;;;;;;44.90;25.17;;;;;;;3.50;79.75;95487.34;5017753;28;20460;-84
2022/02/14 04:31:03;;;;;;;39.00;23.53;;;;;;;3.39;79.80;95471.41;5052244;28;20549;-84
2022/02/14 04:33:30;;;;;;;43.40;24.93;;;;;;;3.32;80.65;95481.25;5017366;28;20446;-83
2022/02/14 04:35:57;;;;;;;34.25;23.42;;;;;;;3.38;80.51;95480.94;5051807;28;20819;-85
2022/02/14 04:38:24;;;;;;;28.40;19.80;;;;;;;3.36;80.21;95474.16;5052836;28;20204;-83
2022/02/14 04:40:51;;;;;;;30.10;19.60;;;;;;;3.33;80.00;95479.50;5052613;28;20810;-85
2022/02/14 04:43:19;;;;;;;28.13;18.50;;;;;;;3.08;80.39;95477.19;5052637;28;20446;-85
2022/02/14 04:45:46;;;;;;;24.60;16.20;;;;;;;3.06;80.67;95492.81;5052655;28;20462;-85
2022/02/14 04:48:13;;;;;;;33.40;22.27;;;;;;;3.00;81.30;95481.91;5052020;28;20475;-83
2022/02/14 04:50:40;;;;;;;26.63;18.93;;;;;;;2.98;81.21;95488.91;5051753;28;20450;-85
2022/02/14 04:53:07;;;;;;;28.73;19.07;;;;;;;2.98;82.13;95492.34;5052799;28;20469;-85
2022/02/14 04:55:34;;;;;;;40.03;21.73;;;;;;;3.06;82.27;95492.00;5052746;28;20487;-84
2022/02/14 04:58:01;;;;;;;30.00;19.97;;;;;;;3.10;81.98;95483.16;5053292;28;20445;-85
2022/02/14 05:00:30;;;;;;;28.00;18.77;;;;;;;3.14;82.18;95481.25;5053867;28;20821;-85
2022/02/14 05:02:57;;;;;;;34.83;20.00;;;;;;;3.16;82.03;95484.63;5053351;28;20522;-85
2022/02/14 05:05:24;;;;;;;38.13;20.37;;;;;;;3.16;81.53;95487.22;5052160;28;20462;-84
2022/02/14 05:07:51;;;;;;;33.17;20.77;;;;;;;3.23;81.66;95486.03;5052161;28;20446;-83
2022/02/14 05:10:18;;;;;;;33.03;22.30;;;;;;;3.24;81.52;95496.34;5052096;28;20450;-84
2022/02/14 05:12:45;;;;;;;35.73;23.50;;;;;;;3.24;80.75;95490.31;5033466;28;20427;-85
2022/02/14 05:15:12;;;;;;;43.80;24.53;;;;;;;3.17;81.26;95483.69;5052177;28;20484;-85
2022/02/14 05:17:41;;;;;;;39.47;22.20;;;;;;;3.26;81.42;95504.03;5053208;28;20869;-85
2022/02/14 05:20:09;;;;;;;41.13;22.57;;;;;;;3.23;81.14;95497.25;5054039;28;20811;-84
2022/02/14 05:22:36;;;;;;;31.70;21.53;;;;;;;3.22;81.71;95499.91;5053352;28;20522;-85
2022/02/14 05:25:04;;;;;;;35.85;23.73;;;;;;;3.26;81.22;95496.25;5052901;28;20794;-85
2022/02/14 05:27:30;;;;;;;37.40;23.10;;;;;;;3.20;81.08;95486.19;5054672;28;20210;-85
2022/02/14 05:29:57;;;;;;;50.53;27.20;;;;;;;3.16;81.32;95497.59;5053544;28;20452;-86
2022/02/14 05:32:24;;;;;;;49.53;29.73;;;;;;;3.00;81.97;95487.94;5017779;28;20930;-85
2022/02/14 05:34:53;;;;;;;41.70;25.87;;;;;;;2.87;82.91;95488.53;5053680;28;20194;-86
2022/02/14 05:37:20;;;;;;;45.40;27.92;;;;;;;2.76;82.98;95499.41;5052615;28;20478;-83
2022/02/14 05:39:47;;;;;;;51.53;27.00;;;;;;;2.77;83.74;95495.91;5053116;28;20641;-86
2022/02/14 05:42:15;;;;;;;42.88;27.58;;;;;;;2.83;84.21;95497.38;5052703;28;20448;-85
2022/02/14 05:44:42;;;;;;;39.70;24.07;;;;;;;2.92;84.72;95505.59;5053114;28;20189;-85
2022/02/14 05:47:09;;;;;;;31.90;18.57;;;;;;;2.83;83.82;95503.38;5053433;28;20458;-86
2022/02/14 05:49:37;;;;;;;28.53;18.40;;;;;;;2.80;84.55;95500.94;5053129;28;20460;-85
2022/02/14 05:52:07;;;;;;;40.17;25.63;;;;;;;2.78;86.07;95500.16;5053276;28;20532;-84
2022/02/14 05:54:34;;;;;;;36.13;25.40;;;;;;;2.73;85.64;95496.94;5053125;28;20437;-84
2022/02/14 05:57:01;;;;;;;43.60;26.50;;;;;;;2.65;85.94;95502.47;5052918;28;20512;-85
2022/02/14 05:59:28;;;;;;;45.47;28.27;;;;;;;2.64;86.45;95499.97;5053350;28;20541;-87
2022/02/14 06:01:55;;;;;;;37.53;23.90;;;;;;;2.65;86.58;95501.63;5056969;28;20785;-86
2022/02/14 06:04:22;;;;;;;31.50;19.50;;;;;;;2.84;88.46;95496.47;5057206;28;20564;-86
2022/02/14 06:06:49;;;;;;;32.70;21.13;;;;;;;2.89;86.89;95497.97;5057206;28;20464;-86
2022/02/14 06:09:18;;;;;;;48.77;23.83;;;;;;;3.00;86.09;95500.88;5056777;28;20459;-86
2022/02/14 06:11:45;;;;;;;44.73;22.87;;;;;;;3.17;86.12;95507.03;5057352;28;20462;-84
2022/02/14 06:14:12;;;;;;;51.17;29.40;;;;;;;3.33;90.19;95505.44;5056982;28;21007;-85
2022/02/14 06:16:39;;;;;;;55.70;29.63;;;;;;;3.59;88.32;95506.81;5057239;28;20474;-85
2022/02/14 06:19:06;;;;;;;46.80;27.70;;;;;;;3.83;85.92;95504.78;5056852;28;20438;-83
2022/02/14 06:21:33;;;;;;;49.33;24.60;;;;;;;3.91;84.51;95506.09;5056258;28;20809;-84
2022/02/14 06:24:00;;;;;;;30.00;20.87;;;;;;;3.99;83.03;95510.91;5056775;28;20465;-84
2022/02/14 06:26:32;;;;;;;30.30;22.43;;;;;;;4.06;82.46;95519.25;5056185;28;20906;-85
2022/02/14 06:28:59;;;;;;;33.20;22.70;;;;;;;4.07;82.13;95518.34;5056741;28;20730;-85
2022/02/14 06:31:27;;;;;;;38.80;23.43;;;;;;;4.02;81.83;95519.38;5056077;28;20447;-85
2022/02/14 06:33:54;;;;;;;49.83;25.73;;;;;;;4.05;81.27;95526.19;5057329;28;20506;-85
2022/02/14 06:36:23;;;;;;;42.83;27.27;;;;;;;4.12;81.34;95527.56;5062446;28;20479;-85
2022/02/14 06:38:50;;;;;;;48.60;31.43;;;;;;;4.12;80.37;95521.53;5073295;28;20471;-85
2022/02/14 06:41:18;;;;;;;44.73;30.03;;;;;;;4.12;80.73;95527.56;5067388;28;20462;-84
2022/02/14 06:43:46;;;;;;;46.10;28.87;;;;;;;4.03;80.88;95525.41;5066280;28;20437;-85
2022/02/14 06:46:14;;;;;;;52.40;32.80;;;;;;;3.95;82.05;95530.13;5066359;28;20448;-84
2022/02/14 06:48:41;;;;;;;59.93;35.17;;;;;;;3.90;81.57;95525.19;5066421;28;20452;-85
2022/02/14 06:51:09;;;;;;;55.17;33.30;;;;;;;3.92;82.51;95535.47;5065728;28;20445;-84
2022/02/14 06:53:36;;;;;;;42.07;24.73;;;;;;;3.85;82.20;95534.94;5065985;28;20602;-85
2022/02/14 06:56:05;;;;;;;44.43;25.07;;;;;;;3.83;82.87;95535.94;5065537;28;20494;-84
2022/02/14 06:58:32;;;;;;;36.07;24.27;;;;;;;3.86;83.38;95536.63;5031971;28;20452;-84
2022/02/14 07:01:01;;;;;;;38.40;23.57;;;;;;;3.96;83.42;95531.81;5031393;28;20601;-85
2022/02/14 07:03:28;;;;;;;38.27;20.00;;;;;;;3.94;82.37;95534.50;5028660;28;20447;-85
2022/02/14 07:05:55;;;;;;;32.83;19.83;;;;;;;3.95;82.76;95530.13;5054854;28;20461;-84
2022/02/14 07:08:22;;;;;;;28.60;17.57;;;;;;;3.88;82.27;95533.97;5056187;28;20450;-84
2022/02/14 07:10:49;;;;;;;34.30;21.60;;;;;;;3.94;83.21;95525.88;5054725;28;20853;-84
2022/02/14 07:13:16;;;;;;;27.63;20.70;;;;;;;3.90;82.57;95522.59;5053651;28;20451;-84
2022/02/14 07:15:44;;;;;;;32.93;21.07;;;;;;;3.90;83.05;95530.38;5054252;28;20472;-85
2022/02/14 07:18:14;;;;;;;31.47;20.37;;;;;;;3.98;83.23;95532.59;5054151;28;20526;-85
2022/02/14 07:20:41;;;;;;;23.73;19.10;;;;;;;4.07;82.00;95534.75;5054132;28;20441;-85
2022/02/14 07:23:08;;;;;;;33.03;20.20;;;;;;;4.08;81.43;95510.47;5054209;28;20456;-84
2022/02/14 07:25:36;;;;;;;29.93;20.50;;;;;;;4.25;81.58;95536.41;5054406;28;20457;-83
2022/02/14 07:28:03;;;;;;;32.47;17.43;;;;;;;4.23;80.52;95532.22;5054240;28;20453;-84
2022/02/14 07:30:30;;;;;;;59.00;37.07;;;;;;;4.24;81.57;95532.16;5054136;28;20452;-84
2022/02/14 07:32:57;;;;;;;39.83;23.80;;;;;;;4.24;82.19;95531.31;5053638;28;20452;-84
2022/02/14 07:35:25;;;;;;;38.73;25.43;;;;;;;4.28;82.03;95525.88;5054115;28;20787;-84
2022/02/14 07:37:52;;;;;;;30.03;18.87;;;;;;;4.32;82.60;95524.81;5053617;28;20850;-84
2022/02/14 07:40:19;;;;;;;34.57;20.13;;;;;;;4.39;82.17;95532.31;5053585;28;20460;-84
2022/02/14 07:42:46;;;;;;;44.77;29.47;;;;;;;4.36;82.87;95533.31;5053736;28;20441;-83
2022/02/14 07:45:13;;;;;;;44.93;27.97;;;;;;;4.34;83.59;95530.78;5053576;28;20449;-84
2022/02/14 07:47:40;;;;;;;44.83;25.83;;;;;;;4.23;83.65;95534.81;5053536;28;20460;-81
2022/02/14 07:50:11;;;;;;;69.37;41.17;;;;;;;4.16;83.96;95529.09;5053492;28;20465;-83
2022/02/14 07:52:40;;;;;;;49.23;26.67;;;;;;;4.05;84.69;95526.19;5053310;28;20449;-84
2022/02/14 07:55:08;;;;;;;58.53;33.60;;;;;;;4.02;85.10;95528.91;5053390;28;20435;-84
2022/02/14 07:57:35;;;;;;;47.33;27.73;;;;;;;3.87;86.83;95524.50;5053170;28;20480;-83
2022/02/14 08:00:03;;;;;;;51.57;28.43;;;;;;;3.88;87.31;95524.41;5053085;28;20448;-84
2022/02/14 08:02:29;;;;;;;46.70;29.07;;;;;;;3.78;88.18;95527.53;5053535;28;20535;-83
2022/02/14 08:04:57;;;;;;;46.27;24.80;;;;;;;3.74;90.16;95534.59;5053245;28;20485;-85
2022/02/14 08:07:24;;;;;;;32.30;20.97;;;;;;;3.65;90.11;95528.09;5053043;28;20505;-84
2022/02/14 08:09:52;;;;;;;31.40;21.60;;;;;;;3.62;91.37;95533.44;5052948;28;20449;-85
2022/02/14 08:12:20;;;;;;;37.43;23.27;;;;;;;3.57;91.82;95537.16;5052903;28;20779;-84
2022/02/14 08:14:48;;;;;;;51.00;28.43;;;;;;;3.63;92.87;95524.75;5052812;28;20476;-85
2022/02/14 08:17:16;;;;;;;40.20;25.40;;;;;;;3.67;93.04;95525.44;5052686;28;21013;-84
2022/02/14 08:19:43;;;;;;;40.50;23.73;;;;;;;3.78;94.01;95527.53;5053194;28;20780;-83
2022/02/14 08:22:10;;;;;;;33.60;23.33;;;;;;;3.80;92.78;95528.31;5053136;28;20432;-85
2022/02/14 08:24:37;;;;;;;33.73;22.97;;;;;;;3.80;92.60;95533.50;5052893;28;20458;-83
2022/02/14 08:27:06;;;;;;;39.37;24.10;;;;;;;3.92;92.84;95527.69;5053670;28;20464;-84
2022/02/14 08:29:33;;;;;;;37.27;22.00;;;;;;;3.99;92.91;95529.06;5052763;28;20463;-84
2022/02/14 08:32:00;;;;;;;30.20;22.37;;;;;;;4.00;92.07;95520.38;5052741;28;20926;-84
2022/02/14 08:34:28;;;;;;;36.73;23.40;;;;;;;4.11;91.67;95525.88;5052779;28;20443;-84
2022/02/14 08:36:55;;;;;;;35.37;22.17;;;;;;;4.19;91.66;95522.91;5033550;28;20512;-84
2022/02/14 08:39:24;;;;;;;30.00;20.37;;;;;;;4.20;90.17;95525.44;5052646;28;20456;-84
2022/02/14 08:41:51;;;;;;;27.13;20.07;;;;;;;4.13;88.69;95518.03;5052345;28;20451;-84
2022/02/14 08:44:20;;;;;;;30.07;19.87;;;;;;;4.26;88.88;95519.06;5052420;28;21032;-84
2022/02/14 08:46:47;;;;;;;33.37;24.00;;;;;;;4.35;88.69;95516.88;5052922;28;20539;-83
2022/02/14 08:49:14;;;;;;;38.60;26.40;;;;;;;4.48;87.09;95526.63;5052430;28;20530;-85
2022/02/14 08:51:40;;;;;;;41.20;26.57;;;;;;;4.61;87.33;95515.53;5017812;28;20452;-84
2022/02/14 08:54:07;;;;;;;40.20;25.73;;;;;;;4.80;88.05;95517.19;5052215;28;20528;-84
2022/02/14 08:56:34;;;;;;;39.13;24.90;;;;;;;4.97;88.31;95519.75;5052368;28;20485;-84
2022/02/14 08:59:02;;;;;;;40.53;27.13;;;;;;;5.02;86.62;95519.50;5052611;28;20465;-84
2022/02/14 09:01:30;;;;;;;36.20;24.07;;;;;;;5.06;86.61;95523.63;5052411;28;20457;-84
2022/02/14 09:03:58;;;;;;;42.27;27.30;;;;;;;4.95;85.92;95521.59;5052853;28;20958;-85
2022/02/14 09:06:27;;;;;;;44.07;27.57;;;;;;;4.95;86.26;95532.84;5052628;28;20449;-83
2022/02/14 09:08:54;;;;;;;43.13;25.90;;;;;;;4.92;85.67;95522.59;5052042;28;20952;-85
2022/02/14 09:11:21;;;;;;;38.43;23.50;;;;;;;5.02;85.93;95529.91;5052366;28;20459;-84
2022/02/14 09:13:48;;;;;;;46.20;30.10;;;;;;;5.16;85.82;95523.03;5052322;28;20451;-84
2022/02/14 09:16:15;;;;;;;40.73;26.00;;;;;;;5.16;86.26;95514.41;5052194;28;20957;-84
2022/02/14 09:18:43;;;;;;;41.90;27.17;;;;;;;5.33;84.74;95529.94;5054979;28;20523;-85
2022/02/14 09:21:10;;;;;;;41.97;27.70;;;;;;;5.42;85.13;95532.03;5052173;28;20461;-84
2022/02/14 09:23:38;;;;;;;42.27;26.53;;;;;;;5.52;86.14;95530.63;5052485;28;20812;-84
2022/02/14 09:26:05;;;;;;;54.80;33.50;;;;;;;5.65;85.58;95530.78;5052252;28;20812;-83
2022/02/14 09:28:32;;;;;;;59.07;35.50;;;;;;;5.65;84.63;95535.16;5051901;28;20520;-84
2022/02/14 09:30:59;;;;;;;47.97;27.90;;;;;;;5.50;85.03;95522.06;5052271;28;20448;-82
2022/02/14 09:33:26;;;;;;;61.27;37.67;;;;;;;5.64;84.22;95512.66;5052038;28;20454;-85
2022/02/14 09:35:55;;;;;;;43.70;28.93;;;;;;;5.42;83.81;95524.22;5054077;28;20470;-84
2022/02/14 09:38:26;;;;;;;42.13;29.17;;;;;;;5.55;82.99;95529.63;5057048;28;20503;-84
2022/02/14 09:40:53;;;;;;;44.53;27.73;;;;;;;5.71;83.90;95527.00;5056066;28;20433;-84
2022/02/14 09:43:20;;;;;;;43.77;27.50;;;;;;;5.79;82.66;95522.22;5055849;28;20620;-85
2022/02/14 09:45:47;;;;;;;39.47;26.93;;;;;;;5.84;81.83;95515.00;5058981;28;20441;-85
2022/02/14 09:48:15;;;;;;;60.87;38.30;;;;;;;5.77;81.88;95518.84;5059142;28;20872;-84
2022/02/14 09:50:45;;;;;;;43.40;28.07;;;;;;;5.74;82.01;95517.25;5056607;28;20430;-84
2022/02/14 09:53:17;;;;;;;44.43;27.13;;;;;;;5.65;81.99;95515.16;5058185;28;20468;-84
2022/02/14 09:55:44;;;;;;;38.33;23.90;;;;;;;5.60;82.13;95517.19;5056953;28;20943;-83
2022/02/14 09:58:12;;;;;;;35.67;24.57;;;;;;;5.65;82.39;95515.16;5022505;28;20476;-84
2022/02/14 10:00:39;;;;;;;42.40;25.40;;;;;;;5.55;83.63;95520.06;5039404;28;20881;-83
2022/02/14 10:03:14;;;;;;;40.27;24.73;;;;;;;5.57;83.70;95518.22;5038839;28;20533;-87
2022/02/14 10:05:42;;;;;;;35.07;25.40;;;;;;;5.52;82.77;95514.19;5056712;28;20919;-84
2022/02/14 10:08:15;;;;;;;46.70;28.53;;;;;;;5.49;83.64;95499.56;5064632;28;20453;-84
2022/02/14 10:10:43;;;;;;;38.60;21.87;;;;;;;5.39;84.04;95508.78;5061294;28;20480;-86
2022/02/14 10:13:10;;;;;;;36.67;23.80;;;;;;;5.34;84.71;95500.41;5057341;28;20449;-86
2022/02/14 10:15:50;;;;;;;35.77;24.20;;;;;;;5.28;84.94;95498.13;5058326;28;21025;-83
2022/02/14 10:18:27;;;;;;;44.00;27.37;;;;;;;5.36;86.34;95493.34;5058076;28;20476;-84
2022/02/14 10:21:14;;;;;;;40.50;25.60;;;;;;;5.33;86.52;95490.06;5057974;28;20520;-84
2022/02/14 10:23:57;;;;;;;39.80;24.97;;;;;;;5.38;86.71;95494.09;5057519;28;20444;-84
2022/02/14 10:26:28;;;;;;;41.10;24.50;;;;;;;5.20;86.08;95482.94;5057340;28;20457;-85
2022/02/14 10:28:59;;;;;;;46.20;29.67;;;;;;;5.07;87.25;95470.69;5021963;28;20438;-87
2022/02/14 10:31:26;;;;;;;43.00;26.57;;;;;;;5.23;87.78;95464.56;5058953;28;20487;-83
2022/02/14 10:33:55;;;;;;;43.43;27.43;;;;;;;5.34;86.91;95468.34;5057680;28;20449;-84
2022/02/14 10:36:28;;;;;;;44.87;26.67;;;;;;;5.37;86.18;95462.97;5059006;28;20464;-83
2022/02/14 10:38:55;;;;;;;42.77;26.17;;;;;;;5.43;85.63;95462.63;5022384;28;20476;-84
2022/02/14 10:41:22;;;;;;;52.97;27.80;;;;;;;5.46;85.06;95460.69;5059100;28;20443;-85
2022/02/14 10:43:51;;;;;;;42.47;29.80;;;;;;;5.58;86.00;95448.75;5056789;28;20453;-86
2022/02/14 10:46:21;;;;;;;49.10;26.27;;;;;;;5.83;83.80;95443.00;5057650;28;20963;-81
2022/02/14 10:48:49;;;;;;;44.53;26.60;;;;;;;6.12;84.44;95436.13;5056235;28;20434;-85
2022/02/14 10:51:19;;;;;;;40.03;25.47;;;;;;;6.04;82.79;95428.75;5056228;28;20540;-85
2022/02/14 10:53:49;;;;;;;40.40;27.30;;;;;;;6.21;82.58;95422.56;5055781;28;20460;-85
2022/02/14 10:56:18;;;;;;;37.80;24.60;;;;;;;6.43;81.75;95429.94;5056850;28;20474;-83
2022/02/14 10:58:46;;;;;;;42.88;27.55;;;;;;;6.50;81.41;95426.03;5055443;28;20452;-84
2022/02/14 11:01:15;;;;;;;33.77;23.23;;;;;;;6.50;81.31;95424.25;5055464;28;20198;-82
2022/02/14 11:03:44;;;;;;;33.90;23.03;;;;;;;6.44;80.11;95421.19;5055666;28;20445;-86
2022/02/14 11:06:14;;;;;;;40.57;24.97;;;;;;;6.44;80.67;95421.19;5056060;28;20457;-85
2022/02/14 11:08:43;;;;;;;43.20;24.10;;;;;;;6.50;81.64;95413.00;5056483;28;20500;-86
2022/02/14 11:11:11;;;;;;;36.80;23.80;;;;;;;6.42;80.30;95415.25;5055651;28;20851;-86
2022/02/14 11:13:39;;;;;;;321.10;203.80;;;;;;;7.60;92.20;95399.09;5055852;28;20500;-85
2022/02/14 11:16:09;;;;;;;59.03;38.07;;;;;;;9.12;78.14;95421.06;5055477;28;20990;-85
2022/02/14 11:18:40;;;;;;;27.60;19.90;;;;;;;9.72;67.27;95421.06;5055236;28;21005;-84
2022/02/14 11:21:08;;;;;;;34.47;22.43;;;;;;;9.38;67.47;95422.66;5055429;28;20428;-83
2022/02/14 11:23:42;;;;;;;30.37;20.73;;;;;;;9.01;68.29;95419.22;5055158;28;20453;-84
2022/02/14 11:26:17;;;;;;;44.27;25.47;;;;;;;8.88;69.60;95415.75;5055822;28;20433;-83